createdAt,value
2019-04-14T00:03:43.281Z,6.13
2019-04-14T00:07:47.607Z,6.50
2019-04-14T00:11:52.685Z,5.67
2019-04-14T00:15:57.148Z,6.40
2019-04-14T00:20:01.339Z,6.70
2019-04-14T00:24:07.354Z,6.17
2019-04-14T00:28:11.759Z,5.83
2019-04-14T00:32:16.271Z,6.10
2019-04-14T00:36:39.529Z,6.30
2019-04-14T00:40:49.846Z,6.23
2019-04-14T00:44:58.038Z,5.77
2019-04-14T00:49:01.140Z,5.60
2019-04-14T00:53:05.524Z,5.63
2019-04-14T00:57:09.865Z,6.70
2019-04-14T01:01:14.072Z,5.67
2019-04-14T01:05:19.486Z,6.13
2019-04-14T01:09:24.042Z,6.20
2019-04-14T01:13:28.929Z,5.57
2019-04-14T01:17:33.170Z,6.00
2019-04-14T01:21:37.733Z,6.57
2019-04-14T01:25:43.145Z,6.70
2019-04-14T01:29:47.598Z,6.73
2019-04-14T01:33:53.287Z,5.70
2019-04-14T01:37:57.544Z,6.30
2019-04-14T01:42:02.820Z,5.20
2019-04-14T01:46:14.635Z,5.50
2019-04-14T01:50:13.243Z,5.83
2019-04-14T01:54:36.414Z,6.00
2019-04-14T01:58:47.618Z,5.70
2019-04-14T02:02:52.968Z,6.50
2019-04-14T02:06:57.443Z,5.33
2019-04-14T02:11:02.921Z,5.80
2019-04-14T02:15:07.531Z,5.30
2019-04-14T02:19:13.113Z,5.77
2019-04-14T02:23:17.473Z,5.50
2019-04-14T02:27:23.069Z,4.97
2019-04-14T02:31:53.660Z,4.60
2019-04-14T02:36:06.289Z,5.30
2019-04-14T02:44:13.570Z,4.60
2019-04-14T02:48:27.522Z,6.40
2019-04-14T02:56:28.058Z,5.77
2019-04-14T03:04:44.854Z,5.33
2019-04-14T03:08:52.110Z,5.30
2019-04-14T03:13:01.136Z,5.30
2019-04-14T03:17:25.047Z,5.60
2019-04-14T03:21:49.320Z,5.03
2019-04-14T03:26:11.781Z,5.00
2019-04-14T03:38:37.920Z,5.50
2019-04-14T03:42:43.855Z,5.67
2019-04-14T03:46:49.371Z,5.80
2019-04-14T03:51:06.781Z,5.47
2019-04-14T03:54:52.454Z,5.77
2019-04-14T03:58:42.559Z,5.90
2019-04-14T04:02:46.808Z,5.40
2019-04-14T04:06:51.150Z,6.40
2019-04-14T04:10:57.501Z,5.33
2019-04-14T04:15:01.933Z,5.60
2019-04-14T04:19:31.561Z,6.03
2019-04-14T04:23:45.072Z,4.73
2019-04-14T04:28:08.218Z,5.50
2019-04-14T04:32:23.376Z,5.87
2019-04-14T04:36:53.062Z,5.80
2019-04-14T04:40:57.360Z,5.60
2019-04-14T04:45:02.249Z,7.03
2019-04-14T04:49:14.169Z,7.03
2019-04-14T04:53:13.647Z,6.43
2019-04-14T04:57:17.975Z,6.33
2019-04-14T05:01:23.183Z,7.20
2019-04-14T05:06:04.535Z,5.87
2019-04-14T05:10:26.359Z,6.40
2019-04-14T05:14:39.114Z,5.77
2019-04-14T05:18:44.140Z,6.13
2019-04-14T05:22:48.735Z,5.97
2019-04-14T05:26:52.965Z,6.60
2019-04-14T05:30:57.192Z,6.50
2019-04-14T05:35:01.415Z,6.33
2019-04-14T05:39:07.025Z,6.10
2019-04-14T05:43:11.598Z,5.63
2019-04-14T05:47:17.512Z,5.93
2019-04-14T05:51:24.508Z,6.43
2019-04-14T05:55:30.587Z,6.07
2019-04-14T05:59:35.372Z,5.83
2019-04-14T06:03:40.727Z,5.47
2019-04-14T06:07:46.160Z,6.00
2019-04-14T06:11:50.410Z,5.73
2019-04-14T06:15:54.621Z,4.93
2019-04-14T06:19:58.901Z,5.33
2019-04-14T06:24:03.174Z,5.57
2019-04-14T06:28:07.700Z,5.53
2019-04-14T06:32:33.697Z,6.10
2019-04-14T06:37:05.994Z,5.43
2019-04-14T06:41:13.242Z,5.50
2019-04-14T06:45:17.492Z,6.03
2019-04-14T06:49:21.729Z,6.33
2019-04-14T06:53:25.955Z,5.67
2019-04-14T06:57:30.394Z,5.57
2019-04-14T07:01:34.630Z,5.93
2019-04-14T07:05:38.941Z,6.23
2019-04-14T07:09:43.253Z,6.40
2019-04-14T07:13:48.177Z,5.70
2019-04-14T07:17:52.577Z,5.97
2019-04-14T07:21:56.837Z,5.73
2019-04-14T07:26:01.078Z,5.93
2019-04-14T07:30:23.632Z,5.80
2019-04-14T07:34:53.101Z,5.60
2019-04-14T07:39:15.210Z,6.70
2019-04-14T07:43:44.414Z,6.47
2019-04-14T07:47:56.043Z,5.40
2019-04-14T07:52:12.633Z,5.90
2019-04-14T07:56:26.036Z,6.30
2019-04-14T08:00:33.477Z,6.10
2019-04-14T08:04:41.897Z,6.77
2019-04-14T08:08:46.120Z,6.20
2019-04-14T08:12:50.778Z,7.30
2019-04-14T08:16:55.001Z,6.30
2019-04-14T08:20:59.277Z,6.70
2019-04-14T08:25:03.715Z,6.77
2019-04-14T08:29:07.991Z,6.57
2019-04-14T08:33:12.216Z,6.30
2019-04-14T08:37:16.518Z,7.13
2019-04-14T08:41:20.785Z,7.30
2019-04-14T08:45:37.766Z,5.73
2019-04-14T08:49:46.879Z,6.97
2019-04-14T08:54:01.903Z,6.83
2019-04-14T08:58:25.020Z,6.93
2019-04-14T09:02:54.552Z,6.63
2019-04-14T09:07:13.852Z,7.17
2019-04-14T09:11:19.931Z,6.33
2019-04-14T09:15:24.199Z,6.50
2019-04-14T09:19:28.441Z,6.60
2019-04-14T09:23:32.695Z,6.90
2019-04-14T09:27:37.120Z,5.80
2019-04-14T09:31:41.356Z,6.87
2019-04-14T09:35:45.588Z,6.60
2019-04-14T09:39:49.859Z,7.17
2019-04-14T09:43:54.101Z,7.80
2019-04-14T09:47:58.347Z,6.87
2019-04-14T09:52:02.548Z,7.07
2019-04-14T09:56:06.881Z,7.63
2019-04-14T10:00:12.824Z,7.37
2019-04-14T10:04:17.067Z,7.93
2019-04-14T10:08:21.303Z,7.63
2019-04-14T10:12:25.662Z,7.90
2019-04-14T10:16:29.875Z,7.20
2019-04-14T10:20:34.231Z,7.97
2019-04-14T10:24:38.597Z,7.10
2019-04-14T10:28:42.886Z,7.43
2019-04-14T10:32:47.226Z,8.03
2019-04-14T10:36:51.512Z,7.73
2019-04-14T10:40:55.805Z,7.80
2019-04-14T10:45:00.133Z,8.07
2019-04-14T10:49:04.310Z,7.83
2019-04-14T10:53:08.544Z,8.53
2019-04-14T10:57:12.895Z,8.00
2019-04-14T11:01:17.276Z,8.23
2019-04-14T11:05:21.629Z,7.90
2019-04-14T11:09:25.865Z,7.73
2019-04-14T11:13:30.110Z,7.50
2019-04-14T11:17:34.845Z,7.57
2019-04-14T11:21:42.737Z,7.50
2019-04-14T11:25:45.056Z,7.67
2019-04-14T11:29:53.854Z,8.30
2019-04-14T11:34:02.917Z,8.23
2019-04-14T11:38:14.630Z,7.30
2019-04-14T11:42:19.085Z,7.20
2019-04-14T11:46:23.610Z,7.50
2019-04-14T11:50:28.023Z,8.13
2019-04-14T11:54:32.271Z,9.10
2019-04-14T11:58:36.594Z,7.50
2019-04-14T12:02:54.552Z,7.77
2019-04-14T12:07:17.779Z,7.70
2019-04-14T12:11:22.156Z,6.93
2019-04-14T12:15:26.355Z,7.13
2019-04-14T12:19:30.821Z,7.93
2019-04-14T12:23:35.065Z,9.27
2019-04-14T12:27:39.754Z,8.20
2019-04-14T12:31:45.095Z,8.43
2019-04-14T12:35:49.872Z,9.00
2019-04-14T12:39:54.118Z,8.53
2019-04-14T12:44:23.736Z,9.20
2019-04-14T12:48:55.902Z,10.93
2019-04-14T12:53:00.395Z,9.77
2019-04-14T12:57:04.788Z,10.73
2019-04-14T13:01:11.266Z,10.10
2019-04-14T13:05:15.538Z,10.03
2019-04-14T13:09:19.786Z,10.20
2019-04-14T13:13:24.067Z,9.80
2019-04-14T13:17:28.370Z,9.80
2019-04-14T13:21:32.767Z,10.00
2019-04-14T13:25:36.972Z,9.87
2019-04-14T13:29:41.417Z,10.17
2019-04-14T13:33:45.949Z,10.80
2019-04-14T13:37:50.272Z,10.97
2019-04-14T13:41:54.526Z,9.63
2019-04-14T13:45:59.981Z,10.10
2019-04-14T13:50:05.497Z,12.80
2019-04-14T13:54:12.272Z,10.83
2019-04-14T13:58:17.491Z,14.83
2019-04-14T14:02:21.751Z,11.07
2019-04-14T14:06:25.976Z,11.87
2019-04-14T14:10:32.043Z,12.63
2019-04-14T14:14:55.258Z,10.70
2019-04-14T14:19:04.168Z,10.27
2019-04-14T14:23:13.281Z,10.73
2019-04-14T14:27:17.529Z,10.43
2019-04-14T14:31:22.680Z,11.03
2019-04-14T14:35:26.948Z,11.13
2019-04-14T14:39:31.261Z,10.33
2019-04-14T14:43:35.522Z,11.17
2019-04-14T14:47:41.399Z,10.50
2019-04-14T14:51:51.520Z,11.03
2019-04-14T14:55:55.802Z,11.30
2019-04-14T15:00:00.172Z,10.47
2019-04-14T15:04:04.589Z,9.93
2019-04-14T15:08:08.847Z,10.07
2019-04-14T15:12:13.151Z,10.10
2019-04-14T15:16:17.777Z,10.47
2019-04-14T15:20:23.079Z,13.50
2019-04-14T15:24:29.827Z,11.07
2019-04-14T15:28:34.225Z,10.60
2019-04-14T15:32:38.618Z,10.13
2019-04-14T15:36:42.985Z,10.43
2019-04-14T15:40:47.344Z,10.27
2019-04-14T15:44:51.591Z,10.10
2019-04-14T15:48:56.152Z,10.83
2019-04-14T15:53:00.575Z,10.67
2019-04-14T15:57:23.426Z,10.43
2019-04-14T16:01:46.817Z,9.63
2019-04-14T16:06:07.416Z,9.53
2019-04-14T16:10:39.931Z,10.93
2019-04-14T16:15:03.133Z,9.20
2019-04-14T16:19:26.410Z,10.00
2019-04-14T16:23:30.741Z,9.83
2019-04-14T16:27:52.729Z,10.80
2019-04-14T16:32:16.205Z,10.10
2019-04-14T16:36:21.054Z,10.33
2019-04-14T16:40:25.364Z,10.53
2019-04-14T16:44:29.649Z,10.03
2019-04-14T16:48:33.974Z,9.57
2019-04-14T16:52:57.964Z,10.03
2019-04-14T16:57:20.401Z,10.07
2019-04-14T17:01:30.060Z,9.87
2019-04-14T17:05:35.018Z,9.83
2019-04-14T17:09:39.734Z,9.53
2019-04-14T17:13:48.551Z,9.50
2019-04-14T17:18:22.413Z,9.30
2019-04-14T17:22:50.045Z,10.37
2019-04-14T17:27:01.193Z,9.47
2019-04-14T17:31:27.763Z,9.43
2019-04-14T17:35:50.949Z,9.90
2019-04-14T17:40:07.882Z,8.83
2019-04-14T17:44:28.521Z,9.73
2019-04-14T17:48:55.786Z,8.80
2019-04-14T17:53:04.990Z,9.90
2019-04-14T17:57:27.264Z,9.97
2019-04-14T18:01:36.810Z,9.63
2019-04-14T18:05:47.116Z,10.03
2019-04-14T18:10:03.052Z,8.93
2019-04-14T18:14:32.551Z,9.17
2019-04-14T18:18:45.789Z,9.23
2019-04-14T18:22:50.157Z,10.03
2019-04-14T18:26:54.587Z,9.43
2019-04-14T18:31:20.862Z,10.13
2019-04-14T18:35:33.316Z,9.50
2019-04-14T18:40:02.958Z,9.07
2019-04-14T18:44:17.615Z,8.87
2019-04-14T18:48:46.293Z,9.80
2019-04-14T18:53:12.581Z,9.07
2019-04-14T18:57:25.567Z,9.40
2019-04-14T19:01:33.982Z,9.73
2019-04-14T19:05:38.214Z,10.30
2019-04-14T19:09:44.302Z,9.57
2019-04-14T19:13:49.332Z,9.93
2019-04-14T19:18:08.703Z,10.17
2019-04-14T19:22:14.402Z,10.03
2019-04-14T19:26:19.131Z,9.77
2019-04-14T19:30:24.593Z,10.33
2019-04-14T19:34:30.682Z,10.17
2019-04-14T19:38:35.320Z,9.80
2019-04-14T19:42:41.230Z,10.27
2019-04-14T19:46:46.169Z,10.03
2019-04-14T19:50:50.372Z,11.27
2019-04-14T19:54:54.634Z,11.27
2019-04-14T19:59:00.883Z,9.77
2019-04-14T20:03:06.994Z,10.73
2019-04-14T20:07:11.706Z,10.17
2019-04-14T20:11:17.122Z,11.80
2019-04-14T20:15:26.464Z,10.57
2019-04-14T20:19:42.389Z,10.17
2019-04-14T20:23:52.815Z,10.07
2019-04-14T20:28:02.471Z,11.53
2019-04-14T20:32:15.729Z,9.50
2019-04-14T20:36:20.514Z,10.83
2019-04-14T20:40:24.767Z,10.40
2019-04-14T20:44:30.265Z,9.93
2019-04-14T20:48:34.886Z,11.17
2019-04-14T20:52:40.548Z,10.37
2019-04-14T20:56:45.897Z,10.40
2019-04-14T21:00:50.171Z,9.60
2019-04-14T21:05:04.204Z,8.77
2019-04-14T21:09:28.169Z,10.00
2019-04-14T21:13:52.408Z,9.53
2019-04-14T21:18:05.191Z,10.30
2019-04-14T21:22:23.335Z,9.13
2019-04-14T21:26:51.201Z,10.40
2019-04-14T21:31:14.486Z,9.37
2019-04-14T21:35:27.510Z,9.43
2019-04-14T21:39:52.615Z,9.60
2019-04-14T21:43:56.826Z,8.73
2019-04-14T21:48:02.736Z,10.50
2019-04-14T21:52:28.921Z,9.20
2019-04-14T21:56:34.536Z,9.10
2019-04-14T22:01:44.361Z,8.97
2019-04-14T22:05:54.731Z,9.23
2019-04-14T22:10:05.766Z,8.73
2019-04-14T22:14:10.949Z,9.27
2019-04-14T22:18:15.742Z,9.67
2019-04-14T22:22:21.143Z,9.23
2019-04-14T22:26:26.680Z,9.17
2019-04-14T22:30:30.929Z,9.70
2019-04-14T22:34:38.668Z,9.90
2019-04-14T22:38:44.796Z,9.07
2019-04-14T22:42:49.610Z,8.93
2019-04-14T22:46:55.118Z,9.63
2019-04-14T22:50:59.405Z,9.50
2019-04-14T22:55:05.757Z,9.00
2019-04-14T22:59:10.646Z,8.27
2019-04-14T23:03:37.631Z,8.43
2019-04-14T23:07:56.105Z,8.70
2019-04-14T23:12:15.131Z,10.00
2019-04-14T23:16:27.087Z,9.50
2019-04-14T23:20:54.206Z,9.87
2019-04-14T23:24:59.153Z,10.00
2019-04-14T23:29:03.486Z,10.13
2019-04-14T23:33:09.278Z,10.50
2019-04-14T23:37:14.971Z,9.77
2019-04-14T23:41:19.525Z,10.53
2019-04-14T23:45:25.047Z,9.60
2019-04-14T23:49:29.465Z,10.03
2019-04-14T23:53:34.928Z,9.23
2019-04-14T23:57:39.620Z,9.63
